createdAt,value
2018-09-12T00:00:12.598Z,24.20
2018-09-12T00:03:03.574Z,24.20
2018-09-12T00:05:47.324Z,24.20
2018-09-12T00:08:51.013Z,24.20
2018-09-12T00:11:32.712Z,24.20
2018-09-12T00:14:14.526Z,24.20
2018-09-12T00:16:55.281Z,24.20
2018-09-12T00:19:36.835Z,24.20
2018-09-12T00:22:25.543Z,24.10
2018-09-12T00:25:08.223Z,24.10
2018-09-12T00:27:49.825Z,24.20
2018-09-12T00:30:31.470Z,24.10
2018-09-12T00:33:12.308Z,24.10
2018-09-12T00:35:54.018Z,24.00
2018-09-12T00:38:36.229Z,24.00
2018-09-12T00:41:17.424Z,24.00
2018-09-12T00:43:59.154Z,24.00
2018-09-12T00:46:40.898Z,23.90
2018-09-12T00:49:22.598Z,23.90
2018-09-12T00:52:04.289Z,24.00
2018-09-12T00:54:45.939Z,24.10
2018-09-12T00:57:28.577Z,24.10
2018-09-12T01:00:09.223Z,24.10
2018-09-12T01:02:50.070Z,24.10
2018-09-12T01:05:31.707Z,24.10
2018-09-12T01:08:13.767Z,24.10
2018-09-12T01:10:55.376Z,24.10
2018-09-12T01:13:37.067Z,24.10
2018-09-12T01:16:18.848Z,24.10
2018-09-12T01:19:00.570Z,24.20
2018-09-12T01:21:42.381Z,24.10
2018-09-12T01:24:24.218Z,24.10
2018-09-12T01:27:05.963Z,24.10
2018-09-12T01:29:47.717Z,24.10
2018-09-12T01:32:28.319Z,24.10
2018-09-12T01:35:09.151Z,24.10
2018-09-12T01:37:51.718Z,24.00
2018-09-12T01:40:32.764Z,24.00
2018-09-12T01:43:13.591Z,24.00
2018-09-12T01:45:54.306Z,24.10
2018-09-12T01:48:35.365Z,24.10
2018-09-12T01:51:16.361Z,24.00
2018-09-12T01:53:57.332Z,24.00
2018-09-12T01:56:38.116Z,24.00
2018-09-12T01:59:26.330Z,23.90
2018-09-12T02:02:09.011Z,23.90
2018-09-12T02:04:50.530Z,23.90
2018-09-12T02:07:31.330Z,23.80
2018-09-12T02:10:14.363Z,23.80
2018-09-12T02:12:55.696Z,23.80
2018-09-12T02:15:39.787Z,23.80
2018-09-12T02:18:21.173Z,23.80
2018-09-12T02:21:02.863Z,23.70
2018-09-12T02:23:44.544Z,23.70
2018-09-12T02:26:27.220Z,23.70
2018-09-12T02:29:09.352Z,23.70
2018-09-12T02:31:50.405Z,23.70
2018-09-12T02:34:32.150Z,23.70
2018-09-12T02:37:12.930Z,23.70
2018-09-12T02:39:54.655Z,23.70
2018-09-12T02:42:36.225Z,23.70
2018-09-12T02:45:22.828Z,23.70
2018-09-12T02:48:05.462Z,23.70
2018-09-12T02:50:46.350Z,23.70
2018-09-12T02:53:27.177Z,23.80
2018-09-12T02:56:08.090Z,23.80
2018-09-12T02:58:49.694Z,23.80
2018-09-12T03:01:36.278Z,23.80
2018-09-12T03:04:17.928Z,23.80
2018-09-12T03:07:05.661Z,23.80
2018-09-12T03:09:48.539Z,23.80
2018-09-12T03:12:30.026Z,23.90
2018-09-12T03:15:10.898Z,23.90
2018-09-12T03:17:51.744Z,23.90
2018-09-12T03:20:43.812Z,23.90
2018-09-12T03:23:26.588Z,23.90
2018-09-12T03:26:08.124Z,23.90
2018-09-12T03:28:50.118Z,23.90
2018-09-12T03:31:31.473Z,23.90
2018-09-12T03:34:13.261Z,23.80
2018-09-12T03:36:54.899Z,23.80
2018-09-12T03:39:36.480Z,23.80
2018-09-12T03:42:18.095Z,23.80
2018-09-12T03:45:01.224Z,23.80
2018-09-12T03:47:42.552Z,23.80
2018-09-12T03:50:24.019Z,23.80
2018-09-12T03:53:05.749Z,23.80
2018-09-12T03:55:46.447Z,23.70
2018-09-12T03:58:27.257Z,23.80
2018-09-12T04:01:15.855Z,23.80
2018-09-12T04:03:57.162Z,23.70
2018-09-12T04:06:38.358Z,23.70
2018-09-12T04:09:20.323Z,23.70
2018-09-12T04:12:01.796Z,23.80
2018-09-12T04:14:42.653Z,23.80
2018-09-12T04:17:28.311Z,23.80
2018-09-12T04:20:09.123Z,23.80
2018-09-12T04:22:50.324Z,23.90
2018-09-12T04:25:32.404Z,23.90
2018-09-12T04:28:14.133Z,23.90
2018-09-12T04:30:55.625Z,23.90
2018-09-12T04:33:36.866Z,23.90
2018-09-12T04:36:18.544Z,23.90
2018-09-12T04:39:00.124Z,23.90
2018-09-12T04:41:41.526Z,23.90
2018-09-12T04:44:23.035Z,23.90
2018-09-12T04:47:04.772Z,23.90
2018-09-12T04:49:47.114Z,23.90
2018-09-12T04:52:28.610Z,24.00
2018-09-12T04:55:10.946Z,24.00
2018-09-12T04:57:51.828Z,24.00
2018-09-12T05:00:33.366Z,24.00
2018-09-12T05:03:14.012Z,24.00
2018-09-12T05:05:55.715Z,24.10
2018-09-12T05:08:36.650Z,24.10
2018-09-12T05:11:18.338Z,24.10
2018-09-12T05:13:59.202Z,24.10
2018-09-12T05:16:40.916Z,24.10
2018-09-12T05:19:21.626Z,24.10
2018-09-12T05:22:02.484Z,24.10
2018-09-12T05:24:43.438Z,24.10
2018-09-12T05:27:24.639Z,24.10
2018-09-12T05:30:06.865Z,24.10
2018-09-12T05:32:48.186Z,24.10
2018-09-12T05:35:29.287Z,24.10
2018-09-12T05:38:11.295Z,24.20
2018-09-12T05:40:53.573Z,24.20
2018-09-12T05:43:34.231Z,24.20
2018-09-12T05:46:15.818Z,24.20
2018-09-12T05:48:56.621Z,24.20
2018-09-12T05:51:38.684Z,24.20
2018-09-12T05:54:20.469Z,24.20
2018-09-12T05:57:01.720Z,24.20
2018-09-12T05:59:42.629Z,24.20
2018-09-12T06:02:24.614Z,24.20
2018-09-12T06:05:06.357Z,24.30
2018-09-12T06:07:47.927Z,24.30
2018-09-12T06:10:29.439Z,24.40
2018-09-12T06:13:10.178Z,24.40
2018-09-12T06:15:51.022Z,24.50
2018-09-12T06:18:32.683Z,24.50
2018-09-12T06:21:14.341Z,24.60
2018-09-12T06:23:55.225Z,24.60
2018-09-12T06:26:36.750Z,24.60
2018-09-12T06:29:18.384Z,24.60
2018-09-12T06:31:59.132Z,24.60
2018-09-12T06:34:40.118Z,24.60
2018-09-12T06:37:20.908Z,24.70
2018-09-12T06:40:01.799Z,24.70
2018-09-12T06:42:43.180Z,24.70
2018-09-12T06:45:24.860Z,24.80
2018-09-12T06:48:06.504Z,24.80
2018-09-12T06:50:47.920Z,24.80
2018-09-12T06:53:29.533Z,24.80
2018-09-12T06:56:10.181Z,24.80
2018-09-12T06:58:51.854Z,24.80
2018-09-12T07:01:33.332Z,24.80
2018-09-12T07:04:15.084Z,24.90
2018-09-12T07:06:55.927Z,24.90
2018-09-12T07:09:38.442Z,25.00
2018-09-12T07:12:20.022Z,25.10
2018-09-12T07:15:01.686Z,25.20
2018-09-12T07:17:42.565Z,25.30
2018-09-12T07:20:24.441Z,25.50
2018-09-12T07:23:06.163Z,25.60
2018-09-12T07:25:48.041Z,25.70
2018-09-12T07:28:30.223Z,25.80
2018-09-12T07:31:11.823Z,25.90
2018-09-12T07:33:53.488Z,25.90
2018-09-12T07:36:34.215Z,26.00
2018-09-12T07:39:15.003Z,26.10
2018-09-12T07:41:55.776Z,26.20
2018-09-12T07:44:36.745Z,26.30
2018-09-12T07:47:17.602Z,26.40
2018-09-12T07:49:59.232Z,26.60
2018-09-12T07:52:40.924Z,26.80
2018-09-12T07:55:21.896Z,27.00
2018-09-12T07:58:03.065Z,27.20
2018-09-12T08:00:44.502Z,27.40
2018-09-12T08:03:25.373Z,27.70
2018-09-12T08:06:06.420Z,27.90
2018-09-12T08:08:48.628Z,28.00
2018-09-12T08:11:29.570Z,28.10
2018-09-12T08:14:11.019Z,28.30
2018-09-12T08:16:51.951Z,28.60
2018-09-12T08:19:32.627Z,28.80
2018-09-12T08:22:13.313Z,29.10
2018-09-12T08:24:54.908Z,29.50
2018-09-12T08:27:35.837Z,30.40
2018-09-12T08:30:16.618Z,31.20
2018-09-12T08:32:57.443Z,32.00
2018-09-12T08:35:38.563Z,32.70
2018-09-12T08:38:20.024Z,33.30
2018-09-12T08:41:00.828Z,33.90
2018-09-12T08:43:41.710Z,34.40
2018-09-12T08:46:22.530Z,34.80
2018-09-12T08:49:04.310Z,35.00
2018-09-12T08:51:45.746Z,35.40
2018-09-12T08:54:28.566Z,35.90
2018-09-12T08:57:09.939Z,36.00
2018-09-12T08:59:51.066Z,36.00
2018-09-12T09:02:31.988Z,36.20
2018-09-12T09:05:12.799Z,36.20
2018-09-12T09:07:53.532Z,36.30
2018-09-12T09:10:34.378Z,36.50
2018-09-12T09:13:16.027Z,36.60
2018-09-12T09:15:57.705Z,36.10
2018-09-12T09:18:38.682Z,35.70
2018-09-12T09:21:20.364Z,35.60
2018-09-12T09:24:01.719Z,35.50
2018-09-12T09:26:43.631Z,35.50
2018-09-12T09:29:25.453Z,35.30
2018-09-12T09:32:06.237Z,34.70
2018-09-12T09:37:33.242Z,33.40
2018-09-12T09:40:15.065Z,32.70
2018-09-12T09:42:56.564Z,31.90
2018-09-12T09:45:38.222Z,31.30
2018-09-12T09:48:19.900Z,30.70
2018-09-12T09:51:01.682Z,30.20
2018-09-12T09:53:43.888Z,29.80
2018-09-12T09:56:25.297Z,29.50
2018-09-12T09:59:06.814Z,29.30
2018-09-12T10:01:53.611Z,29.10
2018-09-12T10:04:45.921Z,29.00
2018-09-12T10:07:32.978Z,29.10
2018-09-12T10:10:14.832Z,29.20
2018-09-12T10:12:56.686Z,29.20
2018-09-12T10:15:37.629Z,29.50
2018-09-12T10:18:18.323Z,29.90
2018-09-12T10:20:59.986Z,30.30
2018-09-12T10:23:41.581Z,30.50
2018-09-12T10:26:23.327Z,30.50
2018-09-12T10:29:04.955Z,30.80
2018-09-12T10:31:46.109Z,31.00
2018-09-12T10:34:27.448Z,31.20
2018-09-12T10:37:09.183Z,31.00
2018-09-12T10:39:50.935Z,30.80
2018-09-12T10:42:32.579Z,30.50
2018-09-12T10:45:14.221Z,30.20
2018-09-12T10:47:56.415Z,30.20
2018-09-12T10:50:37.550Z,30.30
2018-09-12T10:53:19.113Z,30.30
2018-09-12T10:56:00.742Z,30.20
2018-09-12T10:58:42.698Z,30.00
2018-09-12T11:01:24.299Z,30.00
2018-09-12T11:04:05.053Z,30.10
2018-09-12T11:06:45.980Z,30.30
2018-09-12T11:09:26.629Z,30.50
2018-09-12T11:12:07.575Z,30.70
2018-09-12T11:14:48.290Z,30.60
2018-09-12T11:17:29.128Z,30.60
2018-09-12T11:20:09.954Z,30.50
2018-09-12T11:22:51.704Z,30.50
2018-09-12T11:25:32.510Z,30.50
2018-09-12T11:28:13.999Z,30.60
2018-09-12T11:30:55.580Z,30.80
2018-09-12T11:33:37.286Z,31.00
2018-09-12T11:36:18.968Z,30.90
2018-09-12T11:39:00.746Z,31.00
2018-09-12T11:41:42.224Z,31.20
2018-09-12T11:44:23.988Z,31.40
2018-09-12T11:47:05.751Z,31.60
2018-09-12T11:49:47.447Z,31.50
2018-09-12T11:52:29.297Z,31.40
2018-09-12T11:55:11.262Z,31.20
2018-09-12T11:57:52.911Z,31.00
2018-09-12T12:00:34.665Z,31.00
2018-09-12T12:03:17.375Z,31.20
2018-09-12T12:05:58.946Z,31.40
2018-09-12T12:08:40.772Z,31.60
2018-09-12T12:11:22.250Z,31.80
2018-09-12T12:14:13.511Z,32.10
2018-09-12T12:16:58.706Z,32.00
2018-09-12T12:19:40.833Z,32.00
2018-09-12T12:22:22.276Z,32.10
2018-09-12T12:25:03.102Z,32.20
2018-09-12T12:27:43.954Z,32.20
2018-09-12T12:30:25.058Z,32.30
2018-09-12T12:33:06.536Z,32.50
2018-09-12T12:35:47.545Z,32.50
2018-09-12T12:38:29.148Z,32.40
2018-09-12T12:41:11.110Z,32.40
2018-09-12T12:43:52.528Z,32.40
2018-09-12T12:46:35.317Z,32.30
2018-09-12T12:49:16.926Z,32.20
2018-09-12T12:51:58.679Z,32.00
2018-09-12T12:54:40.978Z,31.80
2018-09-12T12:57:22.577Z,31.60
2018-09-12T13:00:05.288Z,31.40
2018-09-12T13:02:46.476Z,31.50
2018-09-12T13:05:28.091Z,31.60
2018-09-12T13:08:09.588Z,31.80
2018-09-12T13:10:50.458Z,31.60
2018-09-12T13:13:32.053Z,31.40
2018-09-12T13:16:12.797Z,31.40
2018-09-12T13:18:53.681Z,31.50
2018-09-12T13:21:35.258Z,31.70
2018-09-12T13:24:16.721Z,31.80
2018-09-12T13:26:57.554Z,31.90
2018-09-12T13:29:38.435Z,31.80
2018-09-12T13:32:19.776Z,31.90
2018-09-12T13:35:00.813Z,31.90
2018-09-12T13:37:41.630Z,31.90
2018-09-12T13:40:22.593Z,31.90
2018-09-12T13:43:03.517Z,31.90
2018-09-12T13:45:44.462Z,31.70
2018-09-12T13:48:25.360Z,31.50
2018-09-12T13:51:07.801Z,31.30
2018-09-12T13:53:48.636Z,31.20
2018-09-12T13:56:29.337Z,31.00
2018-09-12T13:59:11.070Z,30.90
2018-09-12T14:01:52.774Z,30.70
2018-09-12T14:04:33.769Z,30.50
2018-09-12T14:07:15.065Z,30.40
2018-09-12T14:09:56.512Z,30.30
2018-09-12T14:12:37.314Z,30.30
2018-09-12T14:18:03.795Z,30.00
2018-09-12T14:20:45.412Z,29.90
2018-09-12T14:23:26.884Z,29.90
2018-09-12T14:26:08.226Z,30.10
2018-09-12T14:28:49.410Z,30.30
2018-09-12T14:31:30.181Z,30.30
2018-09-12T14:34:11.892Z,30.30
2018-09-12T14:36:52.697Z,30.40
2018-09-12T14:39:34.372Z,30.40
2018-09-12T14:42:15.027Z,30.30
2018-09-12T14:44:56.625Z,30.30
2018-09-12T14:47:38.195Z,30.30
2018-09-12T14:50:18.909Z,30.20
2018-09-12T14:53:00.883Z,30.10
2018-09-12T14:55:42.750Z,29.80
2018-09-12T14:58:24.429Z,29.80
2018-09-12T15:01:05.789Z,29.70
2018-09-12T15:03:47.352Z,29.70
2018-09-12T15:06:28.036Z,29.80
2018-09-12T15:09:09.068Z,29.80
2018-09-12T15:11:50.393Z,29.60
2018-09-12T15:14:32.155Z,29.30
2018-09-12T15:17:14.617Z,29.20
2018-09-12T15:19:55.577Z,29.10
2018-09-12T15:22:37.143Z,29.00
2018-09-12T15:25:18.818Z,28.90
2018-09-12T15:28:00.373Z,28.70
2018-09-12T15:30:42.095Z,28.60
2018-09-12T15:33:23.830Z,28.50
2018-09-12T15:36:05.208Z,28.30
2018-09-12T15:38:46.061Z,28.10
2018-09-12T15:41:27.916Z,27.90
2018-09-12T15:44:09.702Z,27.60
2018-09-12T15:46:51.062Z,27.50
2018-09-12T15:49:32.866Z,27.30
2018-09-12T15:52:15.033Z,27.20
2018-09-12T15:54:56.791Z,27.10
2018-09-12T15:57:38.874Z,27.00
2018-09-12T16:00:20.484Z,26.90
2018-09-12T16:03:02.263Z,26.90
2018-09-12T16:05:43.864Z,26.90
2018-09-12T16:08:25.375Z,26.90
2018-09-12T16:11:07.093Z,26.90
2018-09-12T16:13:49.063Z,26.90
2018-09-12T16:16:30.587Z,26.90
2018-09-12T16:19:12.737Z,26.90
2018-09-12T16:21:53.977Z,26.90
2018-09-12T16:24:35.918Z,26.70
2018-09-12T16:27:17.768Z,26.70
2018-09-12T16:29:59.376Z,26.70
2018-09-12T16:32:40.432Z,26.60
2018-09-12T16:35:21.951Z,26.60
2018-09-12T16:38:03.603Z,26.60
2018-09-12T16:40:44.418Z,26.70
2018-09-12T16:43:26.217Z,26.70
2018-09-12T16:46:08.057Z,26.70
2018-09-12T16:48:49.628Z,26.70
2018-09-12T16:51:31.544Z,26.60
2018-09-12T16:54:12.770Z,26.60
2018-09-12T16:56:54.375Z,26.50
2018-09-12T16:59:35.345Z,26.50
2018-09-12T17:02:16.976Z,26.50
2018-09-12T17:04:58.799Z,26.50
2018-09-12T17:07:40.544Z,26.50
2018-09-12T17:10:23.037Z,26.50
2018-09-12T17:13:04.814Z,26.50
2018-09-12T17:15:46.728Z,26.30
2018-09-12T17:18:28.312Z,26.20
2018-09-12T17:21:09.941Z,26.10
2018-09-12T17:23:50.922Z,25.90
2018-09-12T17:26:32.570Z,25.80
2018-09-12T17:29:13.441Z,25.70
2018-09-12T17:31:55.035Z,25.50
2018-09-12T17:34:37.564Z,25.40
2018-09-12T17:37:20.936Z,25.30
2018-09-12T17:40:01.969Z,25.20
2018-09-12T17:42:42.656Z,25.20
2018-09-12T17:45:24.225Z,25.20
2018-09-12T17:48:06.118Z,25.10
2018-09-12T17:50:47.652Z,25.10
2018-09-12T17:53:29.929Z,25.10
2018-09-12T17:56:10.946Z,25.10
2018-09-12T17:58:52.623Z,25.00
2018-09-12T18:01:34.736Z,24.90
2018-09-12T18:04:16.247Z,24.90
2018-09-12T18:06:57.886Z,24.80
2018-09-12T18:09:38.658Z,24.80
2018-09-12T18:12:20.124Z,24.70
2018-09-12T18:15:01.643Z,24.60
2018-09-12T18:17:43.019Z,24.50
2018-09-12T18:20:27.979Z,24.30
2018-09-12T18:23:09.605Z,24.20
2018-09-12T18:25:52.625Z,24.20
2018-09-12T18:28:33.710Z,24.10
2018-09-12T18:31:14.609Z,24.00
2018-09-12T18:33:56.215Z,23.80
2018-09-12T18:36:37.162Z,23.70
2018-09-12T18:39:18.793Z,23.60
2018-09-12T18:42:00.675Z,23.60
2018-09-12T18:44:42.322Z,23.50
2018-09-12T18:47:23.145Z,23.40
2018-09-12T18:50:04.037Z,23.40
2018-09-12T18:52:46.131Z,23.40
2018-09-12T18:55:27.460Z,23.40
2018-09-12T18:58:09.318Z,23.40
2018-09-12T19:00:50.978Z,23.40
2018-09-12T19:03:33.244Z,23.40
2018-09-12T19:06:14.820Z,23.50
2018-09-12T19:08:56.115Z,23.60
2018-09-12T19:11:37.658Z,23.60
2018-09-12T19:14:19.289Z,23.60
2018-09-12T19:17:01.035Z,23.70
2018-09-12T19:19:53.940Z,23.70
2018-09-12T19:22:35.390Z,23.70
2018-09-12T19:25:17.147Z,23.70
2018-09-12T19:27:58.745Z,23.80
2018-09-12T19:30:40.671Z,23.80
2018-09-12T19:33:43.768Z,23.90
2018-09-12T19:36:25.234Z,23.90
2018-09-12T19:39:06.725Z,23.90
2018-09-12T19:41:48.281Z,23.90
2018-09-12T19:44:29.917Z,23.90
2018-09-12T19:47:11.474Z,23.90
2018-09-12T19:49:53.710Z,23.80
2018-09-12T19:52:35.863Z,23.80
2018-09-12T19:55:16.847Z,23.80
2018-09-12T19:57:58.642Z,23.70
2018-09-12T20:00:40.103Z,23.70
2018-09-12T20:03:22.669Z,23.70
2018-09-12T20:06:04.078Z,23.70
2018-09-12T20:08:45.281Z,23.80
2018-09-12T20:11:28.000Z,23.80
2018-09-12T20:14:15.017Z,23.70
2018-09-12T20:16:56.527Z,23.80
2018-09-12T20:19:38.449Z,23.70
2018-09-12T20:22:20.188Z,23.80
2018-09-12T20:25:03.083Z,23.80
2018-09-12T20:27:44.620Z,23.80
2018-09-12T20:30:26.184Z,23.70
2018-09-12T20:33:07.948Z,23.70
2018-09-12T20:35:49.979Z,23.70
2018-09-12T20:38:31.715Z,23.70
2018-09-12T20:41:13.254Z,23.70
2018-09-12T20:43:55.058Z,23.80
2018-09-12T20:46:37.464Z,23.70
2018-09-12T20:49:20.372Z,23.70
2018-09-12T20:52:02.040Z,23.70
2018-09-12T20:54:47.172Z,23.70
2018-09-12T20:57:28.998Z,23.70
2018-09-12T21:00:10.174Z,23.60
2018-09-12T21:02:51.907Z,23.50
2018-09-12T21:05:35.285Z,23.40
2018-09-12T21:08:16.393Z,23.40
2018-09-12T21:10:58.262Z,23.30
2018-09-12T21:13:39.835Z,23.30
2018-09-12T21:16:21.348Z,23.30
2018-09-12T21:19:02.979Z,23.40
2018-09-12T21:21:44.732Z,23.40
2018-09-12T21:24:26.441Z,23.30
2018-09-12T21:27:09.135Z,23.20
2018-09-12T21:29:51.134Z,23.10
2018-09-12T21:32:32.914Z,23.10
2018-09-12T21:35:14.549Z,23.00
2018-09-12T21:37:56.184Z,23.00
2018-09-12T21:40:37.154Z,22.90
2018-09-12T21:43:18.801Z,22.90
2018-09-12T21:46:01.135Z,22.80
2018-09-12T21:48:42.427Z,22.90
2018-09-12T21:51:23.805Z,22.90
2018-09-12T21:54:05.375Z,22.80
2018-09-12T21:56:47.555Z,22.80
2018-09-12T21:59:29.029Z,22.80
2018-09-12T22:02:10.759Z,22.60
2018-09-12T22:04:51.876Z,22.60
2018-09-12T22:07:33.668Z,22.60
2018-09-12T22:10:15.105Z,22.60
2018-09-12T22:12:56.844Z,22.60
2018-09-12T22:15:38.530Z,22.60
2018-09-12T22:18:20.044Z,22.50
2018-09-12T22:21:01.941Z,22.50
2018-09-12T22:23:43.450Z,22.40
2018-09-12T22:26:26.387Z,22.40
2018-09-12T22:29:07.967Z,22.40
2018-09-12T22:31:53.932Z,22.40
2018-09-12T22:34:36.227Z,22.40
2018-09-12T22:37:17.367Z,22.40
2018-09-12T22:39:58.813Z,22.50
2018-09-12T22:42:40.528Z,22.50
2018-09-12T22:45:22.253Z,22.50
2018-09-12T22:48:03.821Z,22.60
2018-09-12T22:50:45.788Z,22.60
2018-09-12T22:53:27.241Z,22.70
2018-09-12T22:56:10.641Z,22.80
2018-09-12T22:58:51.766Z,22.80
2018-09-12T23:01:33.376Z,22.90
2018-09-12T23:04:15.270Z,23.00
2018-09-12T23:06:56.835Z,23.00
2018-09-12T23:09:37.627Z,23.10
2018-09-12T23:12:19.438Z,23.10
2018-09-12T23:15:01.138Z,23.20
2018-09-12T23:17:42.940Z,23.20
2018-09-12T23:20:24.671Z,23.20
2018-09-12T23:23:06.405Z,23.20
2018-09-12T23:25:47.885Z,23.30
2018-09-12T23:28:29.624Z,23.30
2018-09-12T23:31:11.174Z,23.30
2018-09-12T23:33:53.377Z,23.30
2018-09-12T23:36:34.455Z,23.30
2018-09-12T23:39:17.014Z,23.30
2018-09-12T23:41:58.035Z,23.30
2018-09-12T23:44:46.963Z,23.30
2018-09-12T23:47:28.901Z,23.30
2018-09-12T23:50:11.163Z,23.30
2018-09-12T23:52:53.101Z,23.30
2018-09-12T23:55:34.679Z,23.30
2018-09-12T23:58:15.673Z,23.30
